This is the latest recevied weather packets stored in our database for station/object N4OGP-WX. If no packets are shown the sender has not sent any weather packets the latest 10 day(s).
| Time | Temp. | Humidity | Pressure | Rain* | Wind** | Luminosity | Snow |
|---|---|---|---|---|---|---|---|
| 1778259539 | 23.89° C | 42% | 1020.4 hPa | 0 mm | - | - | - |
| 1778259479 | 22.22° C | 83% | 1011.9 hPa | 0 mm | - | - | - |
| 1778259389 | 23.89° C | 42% | 1020.4 hPa | 0 mm | - | - | - |
| 1778259299 | 22.22° C | 83% | 1012 hPa | 0 mm | - | - | - |
| 1778259239 | 22.22° C | 83% | 1012 hPa | 0 mm | - | - | - |
| 1778259149 | 23.89° C | 42% | 1020.4 hPa | 0 mm | - | - | - |
| 1778259059 | 23.89° C | 42% | 1020.4 hPa | 0 mm | - | - | - |
| 1778258969 | 22.22° C | 81% | 1012.2 hPa | 0 mm | - | - | - |
| 1778258909 | 22.22° C | 81% | 1012.3 hPa | 0 mm | - | - | - |
| 1778258819 | 23.89° C | 42% | 1020.4 hPa | 0 mm | - | - | - |
| 1778258759 | 22.22° C | 82% | 1012.3 hPa | 0 mm | - | - | - |
| 1778258699 | 22.22° C | 82% | 1012.3 hPa | 0 mm | - | - | - |
| 1778258639 | 22.22° C | 82% | 1012.3 hPa | 0 mm | - | - | - |
| 1778258579 | 22.22° C | 82% | 1012.3 hPa | 0 mm | - | - | - |
| 1778258519 | 22.22° C | 82% | 1012.3 hPa | 0 mm | - | - | - |
| 1778258429 | 22.22° C | 82% | 1012.3 hPa | 0 mm | - | - | - |
| 1778258339 | 23.89° C | 42% | 1020.4 hPa | 0 mm | - | - | - |
| 1778258249 | 22.22° C | 82% | 1012.3 hPa | 0 mm | - | - | - |
| 1778258189 | 22.22° C | 82% | 1012.3 hPa | 0 mm | - | - | - |
| 1778258129 | 22.22° C | 82% | 1012.4 hPa | 0 mm | - | - | - |
| 1778258069 | 22.22° C | 82% | 1012.3 hPa | 0 mm | - | - | - |
| 1778258009 | 22.22° C | 82% | 1012.3 hPa | 0 mm | - | - | - |
| 1778257919 | 22.22° C | 82% | 1012.4 hPa | 0 mm | - | - | - |
| 1778257829 | 23.89° C | 42% | 1020.4 hPa | 0 mm | - | - | - |
| 1778257769 | 22.22° C | 82% | 1012.6 hPa | 0 mm | - | - | - |
* Rain latest hour (hover to see other rain measurements)
** Current wind speed in m/s (hover to see current wind gust speed)